sensor_id;sensor_type;location;lat;lon;timestamp;temperature;humidity
76040;SHT30;64736;50.462;4.850;2023-03-14T00:01:48;8.92;89.90
76040;SHT30;64736;50.462;4.850;2023-03-14T00:04:14;8.99;89.39
76040;SHT30;64736;50.462;4.850;2023-03-14T00:06:40;9.09;89.07
76040;SHT30;64736;50.462;4.850;2023-03-14T00:09:06;9.12;89.47
76040;SHT30;64736;50.462;4.850;2023-03-14T00:11:33;9.11;89.74
76040;SHT30;64736;50.462;4.850;2023-03-14T00:13:58;9.14;89.33
76040;SHT30;64736;50.462;4.850;2023-03-14T00:16:25;9.15;88.80
76040;SHT30;64736;50.462;4.850;2023-03-14T00:18:51;9.20;88.93
76040;SHT30;64736;50.462;4.850;2023-03-14T00:21:17;9.22;89.18
76040;SHT30;64736;50.462;4.850;2023-03-14T00:23:43;9.23;89.00
76040;SHT30;64736;50.462;4.850;2023-03-14T00:26:14;9.26;88.81
76040;SHT30;64736;50.462;4.850;2023-03-14T00:28:41;9.28;88.66
76040;SHT30;64736;50.462;4.850;2023-03-14T00:31:10;9.33;88.55
76040;SHT30;64736;50.462;4.850;2023-03-14T00:33:36;9.35;88.27
76040;SHT30;64736;50.462;4.850;2023-03-14T00:36:10;9.42;87.99
76040;SHT30;64736;50.462;4.850;2023-03-14T00:38:37;9.47;87.25
76040;SHT30;64736;50.462;4.850;2023-03-14T00:41:07;9.57;86.80
76040;SHT30;64736;50.462;4.850;2023-03-14T00:43:33;9.63;87.05
76040;SHT30;64736;50.462;4.850;2023-03-14T00:45:59;9.70;85.81
76040;SHT30;64736;50.462;4.850;2023-03-14T00:48:25;9.74;85.18
76040;SHT30;64736;50.462;4.850;2023-03-14T00:50:51;9.74;85.53
76040;SHT30;64736;50.462;4.850;2023-03-14T00:53:16;9.76;85.11
76040;SHT30;64736;50.462;4.850;2023-03-14T00:55:43;9.80;85.20
76040;SHT30;64736;50.462;4.850;2023-03-14T00:58:13;9.80;85.15
76040;SHT30;64736;50.462;4.850;2023-03-14T01:00:40;9.84;85.91
76040;SHT30;64736;50.462;4.850;2023-03-14T01:03:07;9.80;85.74
76040;SHT30;64736;50.462;4.850;2023-03-14T01:05:32;9.88;84.22
76040;SHT30;64736;50.462;4.850;2023-03-14T01:07:58;9.87;84.20
76040;SHT30;64736;50.462;4.850;2023-03-14T01:10:25;9.93;83.61
76040;SHT30;64736;50.462;4.850;2023-03-14T01:12:51;9.88;84.77
76040;SHT30;64736;50.462;4.850;2023-03-14T01:15:17;9.83;84.53
76040;SHT30;64736;50.462;4.850;2023-03-14T01:17:43;9.78;85.51
76040;SHT30;64736;50.462;4.850;2023-03-14T01:20:11;9.78;85.72
76040;SHT30;64736;50.462;4.850;2023-03-14T01:22:38;9.76;85.84
76040;SHT30;64736;50.462;4.850;2023-03-14T01:25:14;9.74;85.69
76040;SHT30;64736;50.462;4.850;2023-03-14T01:27:44;9.76;85.39
76040;SHT30;64736;50.462;4.850;2023-03-14T01:30:11;9.71;85.32
76040;SHT30;64736;50.462;4.850;2023-03-14T01:32:38;9.63;87.13
76040;SHT30;64736;50.462;4.850;2023-03-14T01:35:04;9.51;87.91
76040;SHT30;64736;50.462;4.850;2023-03-14T01:37:30;9.48;88.56
76040;SHT30;64736;50.462;4.850;2023-03-14T01:39:56;9.44;88.70
76040;SHT30;64736;50.462;4.850;2023-03-14T01:42:21;9.53;88.20
76040;SHT30;64736;50.462;4.850;2023-03-14T01:44:59;9.46;88.34
76040;SHT30;64736;50.462;4.850;2023-03-14T01:47:25;9.42;88.48
76040;SHT30;64736;50.462;4.850;2023-03-14T01:50:11;9.40;88.83
76040;SHT30;64736;50.462;4.850;2023-03-14T01:52:47;9.37;88.74
76040;SHT30;64736;50.462;4.850;2023-03-14T01:55:22;9.39;89.28
76040;SHT30;64736;50.462;4.850;2023-03-14T01:58:08;9.40;89.58
76040;SHT30;64736;50.462;4.850;2023-03-14T02:00:34;9.35;89.58
76040;SHT30;64736;50.462;4.850;2023-03-14T02:03:02;9.36;89.72
76040;SHT30;64736;50.462;4.850;2023-03-14T02:05:36;9.37;89.91
76040;SHT30;64736;50.462;4.850;2023-03-14T02:08:07;9.36;89.85
76040;SHT30;64736;50.462;4.850;2023-03-14T02:10:38;9.39;89.75
76040;SHT30;64736;50.462;4.850;2023-03-14T02:13:05;9.29;89.64
76040;SHT30;64736;50.462;4.850;2023-03-14T02:15:32;9.40;89.38
76040;SHT30;64736;50.462;4.850;2023-03-14T02:17:58;9.37;89.21
76040;SHT30;64736;50.462;4.850;2023-03-14T02:22:51;9.37;88.89
76040;SHT30;64736;50.462;4.850;2023-03-14T02:25:39;9.36;88.90
76040;SHT30;64736;50.462;4.850;2023-03-14T02:28:11;9.39;88.65
76040;SHT30;64736;50.462;4.850;2023-03-14T02:30:37;9.42;88.35
76040;SHT30;64736;50.462;4.850;2023-03-14T02:33:06;9.40;88.50
76040;SHT30;64736;50.462;4.850;2023-03-14T02:35:51;9.43;88.48
76040;SHT30;64736;50.462;4.850;2023-03-14T02:40:52;9.29;89.19
76040;SHT30;64736;50.462;4.850;2023-03-14T02:43:18;9.29;89.75
76040;SHT30;64736;50.462;4.850;2023-03-14T02:45:45;9.33;90.08
76040;SHT30;64736;50.462;4.850;2023-03-14T02:48:16;9.25;90.29
76040;SHT30;64736;50.462;4.850;2023-03-14T02:50:43;9.23;90.41
76040;SHT30;64736;50.462;4.850;2023-03-14T02:53:13;9.22;90.66
76040;SHT30;64736;50.462;4.850;2023-03-14T02:55:45;9.18;90.75
76040;SHT30;64736;50.462;4.850;2023-03-14T02:58:11;9.12;90.84
76040;SHT30;64736;50.462;4.850;2023-03-14T03:00:37;9.15;90.93
76040;SHT30;64736;50.462;4.850;2023-03-14T03:03:03;9.14;90.78
76040;SHT30;64736;50.462;4.850;2023-03-14T03:05:33;9.15;90.41
76040;SHT30;64736;50.462;4.850;2023-03-14T03:07:59;9.15;90.31
76040;SHT30;64736;50.462;4.850;2023-03-14T03:10:28;9.12;90.37
76040;SHT30;64736;50.462;4.850;2023-03-14T03:12:54;9.16;90.34
76040;SHT30;64736;50.462;4.850;2023-03-14T03:15:20;9.14;90.74
76040;SHT30;64736;50.462;4.850;2023-03-14T03:17:46;9.07;91.28
76040;SHT30;64736;50.462;4.850;2023-03-14T03:20:12;9.04;91.59
76040;SHT30;64736;50.462;4.850;2023-03-14T03:22:39;9.01;91.83
76040;SHT30;64736;50.462;4.850;2023-03-14T03:25:06;9.05;92.07
76040;SHT30;64736;50.462;4.850;2023-03-14T03:27:34;9.01;91.95
76040;SHT30;64736;50.462;4.850;2023-03-14T03:30:01;9.02;92.02
76040;SHT30;64736;50.462;4.850;2023-03-14T03:32:27;9.04;92.05
76040;SHT30;64736;50.462;4.850;2023-03-14T03:34:53;9.07;92.12
76040;SHT30;64736;50.462;4.850;2023-03-14T03:37:19;9.04;92.12
76040;SHT30;64736;50.462;4.850;2023-03-14T03:39:45;9.04;92.17
76040;SHT30;64736;50.462;4.850;2023-03-14T03:42:10;8.95;92.32
76040;SHT30;64736;50.462;4.850;2023-03-14T03:44:36;8.97;92.52
76040;SHT30;64736;50.462;4.850;2023-03-14T03:47:03;8.93;92.73
76040;SHT30;64736;50.462;4.850;2023-03-14T03:49:31;8.87;92.72
76040;SHT30;64736;50.462;4.850;2023-03-14T03:51:58;8.92;92.77
76040;SHT30;64736;50.462;4.850;2023-03-14T03:54:24;8.91;92.77
76040;SHT30;64736;50.462;4.850;2023-03-14T03:56:51;8.95;92.91
76040;SHT30;64736;50.462;4.850;2023-03-14T03:59:17;8.91;92.92
76040;SHT30;64736;50.462;4.850;2023-03-14T04:01:43;8.93;93.00
76040;SHT30;64736;50.462;4.850;2023-03-14T04:04:09;8.93;92.96
76040;SHT30;64736;50.462;4.850;2023-03-14T04:06:35;8.93;92.95
76040;SHT30;64736;50.462;4.850;2023-03-14T04:09:01;8.93;92.94
76040;SHT30;64736;50.462;4.850;2023-03-14T04:11:26;8.99;92.93
76040;SHT30;64736;50.462;4.850;2023-03-14T04:13:52;8.98;92.97
76040;SHT30;64736;50.462;4.850;2023-03-14T04:16:22;8.97;92.93
76040;SHT30;64736;50.462;4.850;2023-03-14T04:18:48;8.97;92.93
76040;SHT30;64736;50.462;4.850;2023-03-14T04:21:14;8.99;92.95
76040;SHT30;64736;50.462;4.850;2023-03-14T04:23:40;9.01;92.97
76040;SHT30;64736;50.462;4.850;2023-03-14T04:26:07;8.99;92.97
76040;SHT30;64736;50.462;4.850;2023-03-14T04:28:33;9.04;93.03
76040;SHT30;64736;50.462;4.850;2023-03-14T04:30:59;9.07;92.99
76040;SHT30;64736;50.462;4.850;2023-03-14T04:33:31;9.04;92.91
76040;SHT30;64736;50.462;4.850;2023-03-14T04:35:57;8.98;92.76
76040;SHT30;64736;50.462;4.850;2023-03-14T04:38:23;9.05;92.73
76040;SHT30;64736;50.462;4.850;2023-03-14T04:40:49;9.08;92.76
76040;SHT30;64736;50.462;4.850;2023-03-14T04:43:15;9.09;92.75
76040;SHT30;64736;50.462;4.850;2023-03-14T04:45:42;9.08;92.78
76040;SHT30;64736;50.462;4.850;2023-03-14T04:48:07;9.08;92.69
76040;SHT30;64736;50.462;4.850;2023-03-14T04:50:33;9.09;92.54
76040;SHT30;64736;50.462;4.850;2023-03-14T04:52:59;9.12;92.48
76040;SHT30;64736;50.462;4.850;2023-03-14T04:55:24;9.12;92.52
76040;SHT30;64736;50.462;4.850;2023-03-14T04:57:50;9.12;92.59
76040;SHT30;64736;50.462;4.850;2023-03-14T05:00:16;9.14;92.58
76040;SHT30;64736;50.462;4.850;2023-03-14T05:02:45;9.15;92.57
76040;SHT30;64736;50.462;4.850;2023-03-14T05:05:11;9.18;92.62
76040;SHT30;64736;50.462;4.850;2023-03-14T05:07:37;9.16;92.58
76040;SHT30;64736;50.462;4.850;2023-03-14T05:10:03;9.16;92.55
76040;SHT30;64736;50.462;4.850;2023-03-14T05:12:29;9.18;92.54
76040;SHT30;64736;50.462;4.850;2023-03-14T05:14:54;9.18;92.50
76040;SHT30;64736;50.462;4.850;2023-03-14T05:17:20;9.15;92.31
76040;SHT30;64736;50.462;4.850;2023-03-14T05:19:46;9.22;92.30
76040;SHT30;64736;50.462;4.850;2023-03-14T05:22:13;9.23;92.35
76040;SHT30;64736;50.462;4.850;2023-03-14T05:24:38;9.22;92.30
76040;SHT30;64736;50.462;4.850;2023-03-14T05:27:05;9.25;92.32
76040;SHT30;64736;50.462;4.850;2023-03-14T05:29:30;9.25;92.32
76040;SHT30;64736;50.462;4.850;2023-03-14T05:31:56;9.23;92.28
76040;SHT30;64736;50.462;4.850;2023-03-14T05:34:22;9.26;92.12
76040;SHT30;64736;50.462;4.850;2023-03-14T05:36:47;9.26;92.15
76040;SHT30;64736;50.462;4.850;2023-03-14T05:39:13;9.26;92.10
76040;SHT30;64736;50.462;4.850;2023-03-14T05:41:40;9.28;91.99
76040;SHT30;64736;50.462;4.850;2023-03-14T05:44:06;9.29;91.78
76040;SHT30;64736;50.462;4.850;2023-03-14T05:46:32;9.29;91.61
76040;SHT30;64736;50.462;4.850;2023-03-14T05:48:58;9.35;91.67
76040;SHT30;64736;50.462;4.850;2023-03-14T05:51:24;9.35;91.49
76040;SHT30;64736;50.462;4.850;2023-03-14T05:53:50;9.36;91.41
76040;SHT30;64736;50.462;4.850;2023-03-14T05:56:16;9.35;91.35
76040;SHT30;64736;50.462;4.850;2023-03-14T05:58:42;9.37;91.28
76040;SHT30;64736;50.462;4.850;2023-03-14T06:01:08;9.39;91.25
76040;SHT30;64736;50.462;4.850;2023-03-14T06:03:34;9.36;91.00
76040;SHT30;64736;50.462;4.850;2023-03-14T06:05:59;9.37;90.94
76040;SHT30;64736;50.462;4.850;2023-03-14T06:08:26;9.39;90.86
76040;SHT30;64736;50.462;4.850;2023-03-14T06:10:52;9.42;90.76
76040;SHT30;64736;50.462;4.850;2023-03-14T06:13:18;9.44;90.72
76040;SHT30;64736;50.462;4.850;2023-03-14T06:15:44;9.43;90.73
76040;SHT30;64736;50.462;4.850;2023-03-14T06:18:10;9.44;90.61
76040;SHT30;64736;50.462;4.850;2023-03-14T06:20:37;9.47;90.48
76040;SHT30;64736;50.462;4.850;2023-03-14T06:23:05;9.48;90.45
76040;SHT30;64736;50.462;4.850;2023-03-14T06:25:32;9.50;90.58
76040;SHT30;64736;50.462;4.850;2023-03-14T06:27:57;9.54;90.67
76040;SHT30;64736;50.462;4.850;2023-03-14T06:30:23;9.60;90.51
76040;SHT30;64736;50.462;4.850;2023-03-14T06:32:49;9.61;90.37
76040;SHT30;64736;50.462;4.850;2023-03-14T06:35:15;9.64;90.00
76040;SHT30;64736;50.462;4.850;2023-03-14T06:37:41;9.67;89.98
76040;SHT30;64736;50.462;4.850;2023-03-14T06:40:09;9.61;89.86
76040;SHT30;64736;50.462;4.850;2023-03-14T06:42:35;9.58;90.08
76040;SHT30;64736;50.462;4.850;2023-03-14T06:45:00;9.60;90.23
76040;SHT30;64736;50.462;4.850;2023-03-14T06:47:27;9.51;90.55
76040;SHT30;64736;50.462;4.850;2023-03-14T06:49:53;9.47;91.02
76040;SHT30;64736;50.462;4.850;2023-03-14T06:52:18;9.44;91.42
76040;SHT30;64736;50.462;4.850;2023-03-14T06:54:44;9.37;91.94
76040;SHT30;64736;50.462;4.850;2023-03-14T06:57:10;9.30;92.38
76040;SHT30;64736;50.462;4.850;2023-03-14T06:59:36;9.30;92.81
76040;SHT30;64736;50.462;4.850;2023-03-14T07:02:01;9.30;93.06
76040;SHT30;64736;50.462;4.850;2023-03-14T07:04:27;9.29;93.21
76040;SHT30;64736;50.462;4.850;2023-03-14T07:06:53;9.26;93.35
76040;SHT30;64736;50.462;4.850;2023-03-14T07:09:19;9.29;93.48
76040;SHT30;64736;50.462;4.850;2023-03-14T07:11:45;9.29;93.58
76040;SHT30;64736;50.462;4.850;2023-03-14T07:14:11;9.26;93.60
76040;SHT30;64736;50.462;4.850;2023-03-14T07:16:36;9.26;93.66
76040;SHT30;64736;50.462;4.850;2023-03-14T07:19:02;9.28;93.69
76040;SHT30;64736;50.462;4.850;2023-03-14T07:21:29;9.25;93.68
76040;SHT30;64736;50.462;4.850;2023-03-14T07:23:55;9.29;93.71
76040;SHT30;64736;50.462;4.850;2023-03-14T07:26:21;9.29;93.69
76040;SHT30;64736;50.462;4.850;2023-03-14T07:28:47;9.22;93.69
76040;SHT30;64736;50.462;4.850;2023-03-14T07:31:12;9.26;93.67
76040;SHT30;64736;50.462;4.850;2023-03-14T07:33:38;9.30;93.58
76040;SHT30;64736;50.462;4.850;2023-03-14T07:36:05;9.20;93.64
76040;SHT30;64736;50.462;4.850;2023-03-14T07:38:32;8.61;93.70
76040;SHT30;64736;50.462;4.850;2023-03-14T07:41:03;8.07;93.19
76040;SHT30;64736;50.462;4.850;2023-03-14T07:43:29;7.78;92.36
76040;SHT30;64736;50.462;4.850;2023-03-14T07:45:55;7.37;91.44
76040;SHT30;64736;50.462;4.850;2023-03-14T07:48:21;7.06;90.18
76040;SHT30;64736;50.462;4.850;2023-03-14T07:50:54;6.84;89.71
76040;SHT30;64736;50.462;4.850;2023-03-14T07:53:22;6.76;89.92
76040;SHT30;64736;50.462;4.850;2023-03-14T07:55:53;6.75;90.54
76040;SHT30;64736;50.462;4.850;2023-03-14T07:58:20;6.88;91.18
76040;SHT30;64736;50.462;4.850;2023-03-14T08:00:48;6.59;91.05
76040;SHT30;64736;50.462;4.850;2023-03-14T08:03:14;6.86;92.09
76040;SHT30;64736;50.462;4.850;2023-03-14T08:05:39;6.75;92.34
76040;SHT30;64736;50.462;4.850;2023-03-14T08:08:07;6.51;92.03
76040;SHT30;64736;50.462;4.850;2023-03-14T08:10:32;6.74;91.85
76040;SHT30;64736;50.462;4.850;2023-03-14T08:12:59;6.91;92.02
76040;SHT30;64736;50.462;4.850;2023-03-14T08:15:27;6.74;92.19
76040;SHT30;64736;50.462;4.850;2023-03-14T08:17:54;6.74;91.86
76040;SHT30;64736;50.462;4.850;2023-03-14T08:20:22;6.72;91.04
76040;SHT30;64736;50.462;4.850;2023-03-14T08:22:48;6.71;91.61
76040;SHT30;64736;50.462;4.850;2023-03-14T08:25:14;6.76;90.41
76040;SHT30;64736;50.462;4.850;2023-03-14T08:27:40;6.54;90.64
76040;SHT30;64736;50.462;4.850;2023-03-14T08:30:10;6.41;90.34
76040;SHT30;64736;50.462;4.850;2023-03-14T08:32:37;6.64;90.95
76040;SHT30;64736;50.462;4.850;2023-03-14T08:35:03;6.58;91.65
76040;SHT30;64736;50.462;4.850;2023-03-14T08:37:31;6.65;91.84
76040;SHT30;64736;50.462;4.850;2023-03-14T08:39:57;6.71;92.51
76040;SHT30;64736;50.462;4.850;2023-03-14T08:42:23;6.71;92.81
76040;SHT30;64736;50.462;4.850;2023-03-14T08:44:49;6.74;93.15
76040;SHT30;64736;50.462;4.850;2023-03-14T08:47:15;6.58;92.69
76040;SHT30;64736;50.462;4.850;2023-03-14T08:49:41;6.49;92.96
76040;SHT30;64736;50.462;4.850;2023-03-14T08:52:07;6.41;92.53
76040;SHT30;64736;50.462;4.850;2023-03-14T08:54:33;6.11;91.75
76040;SHT30;64736;50.462;4.850;2023-03-14T08:56:58;6.33;90.64
76040;SHT30;64736;50.462;4.850;2023-03-14T08:59:24;6.23;91.78
76040;SHT30;64736;50.462;4.850;2023-03-14T09:01:50;6.38;92.10
76040;SHT30;64736;50.462;4.850;2023-03-14T09:04:16;6.14;92.10
76040;SHT30;64736;50.462;4.850;2023-03-14T09:06:42;6.02;92.16
76040;SHT30;64736;50.462;4.850;2023-03-14T09:09:08;6.14;91.81
76040;SHT30;64736;50.462;4.850;2023-03-14T09:11:34;6.13;91.39
76040;SHT30;64736;50.462;4.850;2023-03-14T09:14:00;6.11;91.44
76040;SHT30;64736;50.462;4.850;2023-03-14T09:16:26;5.83;89.52
76040;SHT30;64736;50.462;4.850;2023-03-14T09:18:52;5.92;90.19
76040;SHT30;64736;50.462;4.850;2023-03-14T09:21:23;6.02;90.44
76040;SHT30;64736;50.462;4.850;2023-03-14T09:23:49;6.05;91.00
76040;SHT30;64736;50.462;4.850;2023-03-14T09:26:15;5.83;90.66
76040;SHT30;64736;50.462;4.850;2023-03-14T09:28:41;5.76;88.98
76040;SHT30;64736;50.462;4.850;2023-03-14T09:31:28;6.03;90.06
76040;SHT30;64736;50.462;4.850;2023-03-14T09:33:55;6.09;90.13
76040;SHT30;64736;50.462;4.850;2023-03-14T09:36:21;5.86;91.04
76040;SHT30;64736;50.462;4.850;2023-03-14T09:38:46;5.80;89.78
76040;SHT30;64736;50.462;4.850;2023-03-14T09:41:29;5.85;90.62
76040;SHT30;64736;50.462;4.850;2023-03-14T09:44:02;5.71;90.50
76040;SHT30;64736;50.462;4.850;2023-03-14T09:46:29;5.80;90.33
76040;SHT30;64736;50.462;4.850;2023-03-14T09:48:57;5.62;90.80
76040;SHT30;64736;50.462;4.850;2023-03-14T09:51:23;5.55;90.29
76040;SHT30;64736;50.462;4.850;2023-03-14T09:53:50;5.50;87.99
76040;SHT30;64736;50.462;4.850;2023-03-14T09:56:25;5.38;88.95
76040;SHT30;64736;50.462;4.850;2023-03-14T09:58:55;5.54;90.24
76040;SHT30;64736;50.462;4.850;2023-03-14T10:01:28;5.44;90.20
76040;SHT30;64736;50.462;4.850;2023-03-14T10:03:56;5.38;86.51
76040;SHT30;64736;50.462;4.850;2023-03-14T10:06:31;5.66;87.39
76040;SHT30;64736;50.462;4.850;2023-03-14T10:08:57;5.73;87.51
76040;SHT30;64736;50.462;4.850;2023-03-14T10:11:24;5.59;87.96
76040;SHT30;64736;50.462;4.850;2023-03-14T10:14:09;5.63;84.80
76040;SHT30;64736;50.462;4.850;2023-03-14T10:16:44;5.83;87.98
76040;SHT30;64736;50.462;4.850;2023-03-14T10:19:15;5.61;83.42
76040;SHT30;64736;50.462;4.850;2023-03-14T10:21:51;5.82;81.58
76040;SHT30;64736;50.462;4.850;2023-03-14T10:24:34;6.13;86.00
76040;SHT30;64736;50.462;4.850;2023-03-14T10:27:03;6.03;85.63
76040;SHT30;64736;50.462;4.850;2023-03-14T10:29:34;6.03;85.13
76040;SHT30;64736;50.462;4.850;2023-03-14T10:32:02;5.98;80.62
76040;SHT30;64736;50.462;4.850;2023-03-14T10:34:31;6.13;84.48
76040;SHT30;64736;50.462;4.850;2023-03-14T10:37:05;6.02;85.43
76040;SHT30;64736;50.462;4.850;2023-03-14T10:39:41;5.90;83.53
76040;SHT30;64736;50.462;4.850;2023-03-14T10:42:21;6.02;82.23
76040;SHT30;64736;50.462;4.850;2023-03-14T10:45:06;5.96;83.44
76040;SHT30;64736;50.462;4.850;2023-03-14T10:47:35;6.11;79.71
76040;SHT30;64736;50.462;4.850;2023-03-14T10:50:28;6.23;81.69
76040;SHT30;64736;50.462;4.850;2023-03-14T10:52:55;6.14;82.23
76040;SHT30;64736;50.462;4.850;2023-03-14T10:55:23;6.23;82.44
76040;SHT30;64736;50.462;4.850;2023-03-14T10:57:50;6.34;79.38
76040;SHT30;64736;50.462;4.850;2023-03-14T11:00:22;6.55;80.88
76040;SHT30;64736;50.462;4.850;2023-03-14T11:03:04;6.74;78.57
76040;SHT30;64736;50.462;4.850;2023-03-14T11:10:39;6.79;79.67
76040;SHT30;64736;50.462;4.850;2023-03-14T11:16:08;6.86;78.22
76040;SHT30;64736;50.462;4.850;2023-03-14T11:21:20;6.93;77.83
76040;SHT30;64736;50.462;4.850;2023-03-14T11:26:31;7.54;77.40
76040;SHT30;64736;50.462;4.850;2023-03-14T11:29:28;7.13;73.13
76040;SHT30;64736;50.462;4.850;2023-03-14T11:31:58;7.06;75.59
76040;SHT30;64736;50.462;4.850;2023-03-14T11:34:30;6.96;74.89
76040;SHT30;64736;50.462;4.850;2023-03-14T11:37:05;6.99;74.06
76040;SHT30;64736;50.462;4.850;2023-03-14T11:39:40;7.05;76.29
76040;SHT30;64736;50.462;4.850;2023-03-14T11:42:16;7.19;76.40
76040;SHT30;64736;50.462;4.850;2023-03-14T11:44:46;7.06;71.18
76040;SHT30;64736;50.462;4.850;2023-03-14T11:47:19;7.22;74.51
76040;SHT30;64736;50.462;4.850;2023-03-14T11:50:08;7.05;73.95
76040;SHT30;64736;50.462;4.850;2023-03-14T11:52:37;7.17;74.86
76040;SHT30;64736;50.462;4.850;2023-03-14T11:55:31;7.24;74.85
76040;SHT30;64736;50.462;4.850;2023-03-14T12:00:42;6.99;69.18
76040;SHT30;64736;50.462;4.850;2023-03-14T12:06:05;6.99;73.11
76040;SHT30;64736;50.462;4.850;2023-03-14T12:08:47;6.97;71.46
76040;SHT30;64736;50.462;4.850;2023-03-14T12:11:15;7.00;71.64
76040;SHT30;64736;50.462;4.850;2023-03-14T12:13:48;6.95;71.79
76040;SHT30;64736;50.462;4.850;2023-03-14T12:16:45;6.82;70.48
76040;SHT30;64736;50.462;4.850;2023-03-14T12:19:38;6.96;71.00
76040;SHT30;64736;50.462;4.850;2023-03-14T12:24:51;7.06;70.10
76040;SHT30;64736;50.462;4.850;2023-03-14T12:30:36;6.96;69.90
76040;SHT30;64736;50.462;4.850;2023-03-14T12:35:49;6.99;69.28
76040;SHT30;64736;50.462;4.850;2023-03-14T12:41:41;6.81;70.81
76040;SHT30;64736;50.462;4.850;2023-03-14T12:46:57;6.64;78.86
76040;SHT30;64736;50.462;4.850;2023-03-14T12:49:36;6.58;79.41
76040;SHT30;64736;50.462;4.850;2023-03-14T12:52:15;6.47;76.17
76040;SHT30;64736;50.462;4.850;2023-03-14T12:55:07;6.58;78.04
76040;SHT30;64736;50.462;4.850;2023-03-14T12:57:53;6.30;78.34
76040;SHT30;64736;50.462;4.850;2023-03-14T13:00:32;6.07;78.65
76040;SHT30;64736;50.462;4.850;2023-03-14T13:03:22;6.13;79.79
76040;SHT30;64736;50.462;4.850;2023-03-14T13:05:57;6.28;82.24
76040;SHT30;64736;50.462;4.850;2023-03-14T13:08:45;6.10;80.89
76040;SHT30;64736;50.462;4.850;2023-03-14T13:11:19;6.34;83.67
76040;SHT30;64736;50.462;4.850;2023-03-14T13:13:48;6.38;84.64
76040;SHT30;64736;50.462;4.850;2023-03-14T13:18:49;5.90;81.17
76040;SHT30;64736;50.462;4.850;2023-03-14T13:21:25;5.99;84.75
76040;SHT30;64736;50.462;4.850;2023-03-14T13:24:03;5.78;87.22
76040;SHT30;64736;50.462;4.850;2023-03-14T13:26:37;5.50;87.71
76040;SHT30;64736;50.462;4.850;2023-03-14T13:29:20;5.34;88.11
76040;SHT30;64736;50.462;4.850;2023-03-14T13:31:49;5.26;87.84
76040;SHT30;64736;50.462;4.850;2023-03-14T13:34:16;5.52;88.80
76040;SHT30;64736;50.462;4.850;2023-03-14T13:36:42;5.07;89.03
76040;SHT30;64736;50.462;4.850;2023-03-14T13:39:18;5.37;87.71
76040;SHT30;64736;50.462;4.850;2023-03-14T13:41:45;5.47;89.54
76040;SHT30;64736;50.462;4.850;2023-03-14T13:46:52;4.73;86.86
76040;SHT30;64736;50.462;4.850;2023-03-14T13:49:24;4.83;86.61
76040;SHT30;64736;50.462;4.850;2023-03-14T13:51:52;4.77;87.36
76040;SHT30;64736;50.462;4.850;2023-03-14T13:54:20;4.75;86.79
76040;SHT30;64736;50.462;4.850;2023-03-14T13:56:47;4.68;87.28
76040;SHT30;64736;50.462;4.850;2023-03-14T13:59:30;4.55;86.96
76040;SHT30;64736;50.462;4.850;2023-03-14T14:02:00;4.72;88.14
76040;SHT30;64736;50.462;4.850;2023-03-14T14:04:26;4.76;89.85
76040;SHT30;64736;50.462;4.850;2023-03-14T14:06:57;4.41;89.95
76040;SHT30;64736;50.462;4.850;2023-03-14T14:09:37;4.33;89.72
76040;SHT30;64736;50.462;4.850;2023-03-14T14:17:30;4.13;89.07
76040;SHT30;64736;50.462;4.850;2023-03-14T14:20:00;3.90;88.45
76040;SHT30;64736;50.462;4.850;2023-03-14T14:22:26;4.11;88.90
76040;SHT30;64736;50.462;4.850;2023-03-14T14:24:52;4.13;89.47
76040;SHT30;64736;50.462;4.850;2023-03-14T14:30:02;4.20;89.03
76040;SHT30;64736;50.462;4.850;2023-03-14T14:32:37;4.07;89.23
76040;SHT30;64736;50.462;4.850;2023-03-14T14:35:04;4.20;89.19
76040;SHT30;64736;50.462;4.850;2023-03-14T14:37:34;3.83;90.15
76040;SHT30;64736;50.462;4.850;2023-03-14T14:40:24;4.07;90.19
76040;SHT30;64736;50.462;4.850;2023-03-14T14:42:50;3.79;89.65
76040;SHT30;64736;50.462;4.850;2023-03-14T14:45:22;3.63;88.65
76040;SHT30;64736;50.462;4.850;2023-03-14T14:48:09;3.76;89.35
76040;SHT30;64736;50.462;4.850;2023-03-14T14:50:59;3.66;90.22
76040;SHT30;64736;50.462;4.850;2023-03-14T14:53:49;4.21;90.92
76040;SHT30;64736;50.462;4.850;2023-03-14T14:56:19;3.86;91.25
76040;SHT30;64736;50.462;4.850;2023-03-14T14:58:48;3.42;90.53
76040;SHT30;64736;50.462;4.850;2023-03-14T15:01:23;3.86;91.16
76040;SHT30;64736;50.462;4.850;2023-03-14T15:03:53;3.56;91.02
76040;SHT30;64736;50.462;4.850;2023-03-14T15:06:19;3.51;89.26
76040;SHT30;64736;50.462;4.850;2023-03-14T15:08:47;3.51;88.48
76040;SHT30;64736;50.462;4.850;2023-03-14T15:11:26;3.77;88.59
76040;SHT30;64736;50.462;4.850;2023-03-14T15:13:53;3.54;86.31
76040;SHT30;64736;50.462;4.850;2023-03-14T15:16:21;3.85;84.52
76040;SHT30;64736;50.462;4.850;2023-03-14T15:18:59;3.96;85.37
76040;SHT30;64736;50.462;4.850;2023-03-14T15:21:26;4.40;87.90
76040;SHT30;64736;50.462;4.850;2023-03-14T15:23:53;4.48;89.41
76040;SHT30;64736;50.462;4.850;2023-03-14T15:26:21;4.55;90.09
76040;SHT30;64736;50.462;4.850;2023-03-14T15:28:47;4.33;90.36
76040;SHT30;64736;50.462;4.850;2023-03-14T15:31:15;4.24;90.36
76040;SHT30;64736;50.462;4.850;2023-03-14T15:33:43;4.13;90.11
76040;SHT30;64736;50.462;4.850;2023-03-14T15:38:49;4.46;88.69
76040;SHT30;64736;50.462;4.850;2023-03-14T15:41:16;4.46;87.86
76040;SHT30;64736;50.462;4.850;2023-03-14T15:43:42;4.58;89.54
76040;SHT30;64736;50.462;4.850;2023-03-14T15:46:11;4.59;88.96
76040;SHT30;64736;50.462;4.850;2023-03-14T15:48:38;4.65;89.37
76040;SHT30;64736;50.462;4.850;2023-03-14T15:51:04;4.49;89.04
76040;SHT30;64736;50.462;4.850;2023-03-14T15:53:30;4.33;86.72
76040;SHT30;64736;50.462;4.850;2023-03-14T15:55:56;4.37;86.97
76040;SHT30;64736;50.462;4.850;2023-03-14T15:58:21;3.21;86.22
76040;SHT30;64736;50.462;4.850;2023-03-14T16:00:48;3.28;87.82
76040;SHT30;64736;50.462;4.850;2023-03-14T16:03:14;3.01;87.67
76040;SHT30;64736;50.462;4.850;2023-03-14T16:05:40;2.94;87.14
76040;SHT30;64736;50.462;4.850;2023-03-14T16:08:06;2.96;86.51
76040;SHT30;64736;50.462;4.850;2023-03-14T16:10:32;2.97;86.59
76040;SHT30;64736;50.462;4.850;2023-03-14T16:12:58;3.03;86.78
76040;SHT30;64736;50.462;4.850;2023-03-14T16:15:24;3.04;85.31
76040;SHT30;64736;50.462;4.850;2023-03-14T16:17:54;3.62;87.55
76040;SHT30;64736;50.462;4.850;2023-03-14T16:20:21;3.08;85.78
76040;SHT30;64736;50.462;4.850;2023-03-14T16:22:47;3.45;85.69
76040;SHT30;64736;50.462;4.850;2023-03-14T16:25:13;3.22;86.78
76040;SHT30;64736;50.462;4.850;2023-03-14T16:27:40;3.56;85.66
76040;SHT30;64736;50.462;4.850;2023-03-14T16:30:08;3.85;86.79
76040;SHT30;64736;50.462;4.850;2023-03-14T16:32:35;4.06;88.51
76040;SHT30;64736;50.462;4.850;2023-03-14T16:35:01;3.94;87.96
76040;SHT30;64736;50.462;4.850;2023-03-14T16:37:27;3.85;88.56
76040;SHT30;64736;50.462;4.850;2023-03-14T16:39:53;3.75;88.82
76040;SHT30;64736;50.462;4.850;2023-03-14T16:42:19;3.77;89.28
76040;SHT30;64736;50.462;4.850;2023-03-14T16:44:46;3.80;89.79
76040;SHT30;64736;50.462;4.850;2023-03-14T16:47:11;3.66;89.79
76040;SHT30;64736;50.462;4.850;2023-03-14T16:49:37;3.60;89.77
76040;SHT30;64736;50.462;4.850;2023-03-14T16:52:04;3.62;89.84